METAR Data
IDs: Format: Raw Decoded Include TAF

Data at: 0800 UTC 23 Sep 2018

KAHQ 230735Z AUTO 00000KT 10SM CLR 09/09 A3006 RMK AO2 T00890087
KAHQ 230715Z AUTO 12003KT 10SM CLR 09/09 A3006 RMK AO2 T00870085
KAHQ 230655Z AUTO 00000KT 10SM CLR 09/09 A3007 RMK AO2 T00900088
KAHQ 230635Z AUTO 00000KT 10SM CLR 09/09 A3007 RMK AO2 T00910090
KAHQ 230615Z AUTO 13003KT 10SM CLR 09/09 A3007 RMK AO2 T00920088
KAHQ 230555Z AUTO 15004KT 10SM CLR 10/09 A3006 RMK AO2 T00970090 10197 20097 402270051
KAHQ 230535Z AUTO 15003KT 10SM CLR 10/09 A3007 RMK AO2 T00980091
KAHQ 230515Z AUTO 14005KT 10SM CLR 10/09 A3007 RMK AO2 T01030087
KAHQ 230455Z AUTO 14004KT 10SM CLR 10/09 A3007 RMK AO2 T01000089
KAHQ 230435Z AUTO 15004KT 10SM CLR 11/09 A3007 RMK AO2 T01120089
KAHQ 230415Z AUTO 17003KT 10SM CLR 12/09 A3008 RMK AO2 T01220090
KAHQ 230355Z AUTO 16005KT 10SM CLR 13/09 A3008 RMK AO2 T01280090
KAHQ 230335Z AUTO 17003KT 10SM CLR 13/09 A3008 RMK AO2 T01300091
KAHQ 230315Z AUTO 17005KT 10SM CLR 14/09 A3008 RMK AO2 T01350090
KAHQ 230255Z AUTO 16006KT 10SM CLR 14/09 A3007 RMK AO2 T01420090
KAHQ 230235Z AUTO 17007KT 10SM CLR 14/09 A3007 RMK AO2 T01440090
KAHQ 230215Z AUTO 16006KT 10SM CLR 14/09 A3007 RMK AO2 T01440089
KAHQ 230155Z AUTO 16006KT 10SM CLR 15/09 A3007 RMK AO2 T01500087
KAHQ 230135Z AUTO 15007KT 10SM CLR 16/09 A3007 RMK AO2 T01550085
KAHQ 230115Z AUTO 16006KT 10SM CLR 16/09 A3007 RMK AO2 T01570085
KAHQ 230055Z AUTO 16006KT 10SM CLR 17/08 A3007 RMK AO2 T01650083
KAHQ 230035Z AUTO 16007KT 10SM CLR 18/08 A3007 RMK AO2 T01750082
KAHQ 230015Z AUTO 16008KT 10SM CLR 19/08 A3007 RMK AO2 T01860080
KAHQ 222355Z AUTO 16008KT 10SM CLR 20/08 A3007 RMK AO2 T01970079 10227 20185
KAHQ 222335Z AUTO 16009G14KT 10SM CLR 21/08 A3007 RMK AO2 T02080078
KAHQ 222315Z AUTO 16009G15KT 10SM CLR 21/08 A3008 RMK AO2 T02140077
KAHQ 222255Z AUTO 17009KT 10SM CLR 22/08 A3008 RMK AO2 T02200076
KAHQ 222235Z AUTO 17011KT 10SM CLR 22/08 A3008 RMK AO2 T02240077
KAHQ 222215Z AUTO 18009G14KT 10SM CLR 23/08 A3009 RMK AO2 T02250076
KAHQ 222155Z AUTO 17010G14KT 10SM CLR 23/07 A3010 RMK AO2 T02260074
KAHQ 222135Z AUTO 17012KT 10SM CLR 23/08 A3010 RMK AO2 T02270078
KAHQ 222115Z AUTO 14009G16KT 10SM CLR 22/07 A3011 RMK AO2 T02230074
KAHQ 222055Z AUTO 16009G14KT 10SM CLR 22/08 A3012 RMK AO2 T02230079
KAHQ 222035Z AUTO 16008KT 10SM CLR 22/08 A3013 RMK AO2 T02230076
KAHQ 222015Z AUTO 18008G14KT 10SM CLR 22/08 A3014 RMK AO2 T02200076
KAHQ 221955Z AUTO 18006G15KT 10SM CLR 21/08 A3015 RMK AO2 T02110077
KAHQ 221930Z AUTO 18008KT 10SM CLR 21/08 A3017 RMK AO2 T02110084
KAHQ 221915Z AUTO 18007KT 150V210 10SM CLR 21/09 A3017 RMK AO2 T02090085
KAHQ 221855Z AUTO 18004KT 10SM CLR 20/09 A3019 RMK AO2 T02000087
KAHQ 221835Z AUTO 17008KT 10SM CLR 20/09 A3021 RMK AO2 T01960086
KAHQ 221815Z AUTO 18006KT 10SM CLR 19/08 A3022 RMK AO2 T01930083
KAHQ 221755Z AUTO 20009KT 10SM CLR 19/09 A3023 RMK AO2 T01860085 10188 20051
KAHQ 221735Z AUTO 17008KT 10SM CLR 18/09 A3024 RMK AO2 T01820087
KAHQ 221715Z AUTO 16008KT 10SM CLR 18/09 A3025 RMK AO2 T01760085
KAHQ 221655Z AUTO 16008KT 10SM CLR 17/08 A3026 RMK AO2 T01700083
KAHQ 221635Z AUTO 16008KT 10SM CLR 16/08 A3027 RMK AO2 T01620084
KAHQ 221615Z AUTO 16006KT 10SM CLR 16/09 A3027 RMK AO2 T01560089
KAHQ 221555Z AUTO 17006KT 10SM CLR 15/09 A3028 RMK AO2 T01470087
KAHQ 221535Z AUTO 15009KT 10SM CLR 14/08 A3028 RMK AO2 T01360082
KAHQ 221515Z AUTO 17011G14KT 10SM CLR 13/08 A3029 RMK AO2 T01300082
KAHQ 221455Z AUTO 17008KT 10SM CLR 12/08 A3029 RMK AO2 T01190083
KAHQ 221435Z AUTO 16008KT 10SM CLR 11/09 A3029 RMK AO2 T01110090
KAHQ 221415Z AUTO 14005KT 10SM CLR 11/10 A3029 RMK AO2 T01050095
KAHQ 221355Z AUTO 15006KT 10SM CLR 10/09 A3029 RMK AO2 T00960091
KAHQ 221335Z AUTO 14003KT 10SM CLR 08/08 A3030 RMK AO2 T00840084
KAHQ 221315Z AUTO 00000KT 7SM CLR 07/07 A3029 RMK AO2 T00730073
KAHQ 221255Z AUTO 00000KT 10SM CLR 06/06 A3030 RMK AO2 T00600060
KAHQ 221235Z AUTO 00000KT 10SM CLR 05/05 A3030 RMK AO2 T00510051
KAHQ 221215Z AUTO 00000KT 10SM CLR 05/05 A3031 RMK AO2 T00530053
KAHQ 221155Z AUTO 00000KT 10SM CLR 06/06 A3031 RMK AO2 T00550055 10075 20053
KAHQ 221135Z AUTO 00000KT 10SM CLR 06/06 A3031 RMK AO2 T00550055
KAHQ 221115Z AUTO 00000KT 10SM CLR 06/06 A3031 RMK AO2 T00560056
KAHQ 221055Z AUTO 00000KT 10SM CLR 06/06 A3030 RMK AO2 T00550055
KAHQ 221035Z AUTO 00000KT 10SM CLR 05/05 A3031 RMK AO2 T00530053
KAHQ 221015Z AUTO 00000KT 10SM CLR 06/06 A3031 RMK AO2 T00580058
KAHQ 220955Z AUTO 00000KT 10SM CLR 06/06 A3032 RMK AO2 T00600060
KAHQ 220935Z AUTO 00000KT 10SM CLR 06/06 A3032 RMK AO2 T00570057
KAHQ 220915Z AUTO 00000KT 10SM CLR 06/06 A3032 RMK AO2 T00600060
KAHQ 220855Z AUTO 02003KT 10SM CLR 06/06 A3033 RMK AO2 T00620062
KAHQ 220835Z AUTO 02003KT 10SM CLR 06/06 A3033 RMK AO2 T00630063
KAHQ 220815Z AUTO 36003KT 10SM CLR 06/06 A3034 RMK AO2 T00610061
KAHQ 220755Z AUTO 35003KT 10SM CLR 06/06 A3034 RMK AO2 T00610061
KAHQ 220735Z AUTO 35003KT 10SM CLR 06/06 A3034 RMK AO2 T00620062
KAHQ 220715Z AUTO 36005KT 10SM CLR 07/07 A3034 RMK AO2 T00660066
KAHQ 220655Z AUTO 34004KT 10SM CLR 07/07 A3034 RMK AO2 T00680068
KAHQ 220635Z AUTO 33003KT 10SM CLR 07/07 A3034 RMK AO2 T00720071
KAHQ 220615Z AUTO 33004KT 10SM CLR 07/07 A3034 RMK AO2 T00710071
KAHQ 220555Z AUTO 33004KT 10SM CLR 07/07 A3034 RMK AO2 T00730073 10150 20072 401870072
KAHQ 220535Z AUTO 33004KT 10SM CLR 07/07 A3034 RMK AO2 T00720072
KAHQ 220515Z AUTO 34003KT 10SM CLR 07/07 A3034 RMK AO2 T00730073
KAHQ 220455Z AUTO 34004KT 10SM CLR 08/08 A3034 RMK AO2 T00760075
KAHQ 220435Z AUTO 34003KT 10SM CLR 08/08 A3034 RMK AO2 T00800076
KAHQ 220415Z AUTO 34003KT 10SM CLR 08/08 A3035 RMK AO2 T00800077
KAHQ 220355Z AUTO 34004KT 10SM CLR 08/08 A3035 RMK AO2 T00810077
KAHQ 220335Z AUTO 36003KT 10SM CLR 08/08 A3035 RMK AO2 T00820077
KAHQ 220315Z AUTO 01003KT 10SM CLR 09/08 A3035 RMK AO2 T00850078
KAHQ 220255Z AUTO 01004KT 10SM CLR 09/08 A3034 RMK AO2 T00900076
KAHQ 220235Z AUTO 05003KT 10SM CLR 09/07 A3035 RMK AO2 T00900073
KAHQ 220215Z AUTO 03004KT 10SM CLR 10/07 A3034 RMK AO2 T00970072
KAHQ 220155Z AUTO 02005KT 10SM CLR 10/07 A3033 RMK AO2 T01000072
KAHQ 220135Z AUTO 02005KT 10SM CLR 11/07 A3032 RMK AO2 T01050073
KAHQ 220115Z AUTO 02005KT 10SM CLR 11/07 A3031 RMK AO2 T01080072
KAHQ 220055Z AUTO 02004KT 10SM CLR 12/07 A3031 RMK AO2 T01170067
KAHQ 220035Z AUTO 02004KT 10SM CLR 13/07 A3030 RMK AO2 T01300065
KAHQ 220015Z AUTO 01007KT 10SM CLR 14/07 A3030 RMK AO2 T01420065
KAHQ 212355Z AUTO 02007KT 10SM CLR 15/06 A3029 RMK AO2 T01520061 10187 20152
KAHQ 212335Z AUTO 35005KT 10SM CLR 16/06 A3029 RMK AO2 T01590062
KAHQ 212315Z AUTO 35007G14KT 10SM CLR 17/06 A3028 RMK AO2 T01650061
KAHQ 212255Z AUTO 34009KT 10SM CLR 17/06 A3028 RMK AO2 T01680060
KAHQ 212235Z AUTO 35005G14KT 10SM CLR 17/06 A3028 RMK AO2 T01730060
KAHQ 212215Z AUTO 35011G17KT 10SM CLR 18/06 A3027 RMK AO2 T01750059
KAHQ 212155Z AUTO 35011G18KT 10SM CLR 18/06 A3027 RMK AO2 T01770060
KAHQ 212135Z AUTO 01010G16KT 10SM CLR 18/06 A3027 RMK AO2 T01800062
KAHQ 212115Z AUTO 34012G19KT 10SM CLR 18/07 A3026 RMK AO2 T01830067
KAHQ 212055Z AUTO 35008G20KT 10SM CLR 18/06 A3026 RMK AO2 T01810064
KAHQ 212035Z AUTO 35010G18KT 10SM CLR 19/06 A3027 RMK AO2 T01870064
KAHQ 212015Z AUTO 36012G17KT 10SM CLR 18/06 A3027 RMK AO2 T01800063